KCKB/CKB METAR and TAF weather

Enter ICAO airport designator
Station Type Date Time Source
KCKB METAR 2022/12/02 22:53 UTC NOAA

KCKB 022253Z 00000KT 10SM FEW100 OVC120 15/M12 A3018 RMK AO2 SLP221 T01501117


Station Type Date Time Source
KCKB Decoded METAR 2022/12/02 22:53 UTC NOAA

HARRISON/MARION REGIONAL, WV, United States (KCKB) 39-18N 080-13W 360M
Dec 02, 2022 - 05:53 PM EST / 2022.12.02 2253 UTC
Wind: Calm:0
Visibility: 10 mile(s):0
Sky conditions: overcast
Temperature: 59.0 F (15.0 C)
Dew Point: 10.9 F (-11.7 C)
Relative Humidity: 14%
Pressure (altimeter): 30.18 in. Hg (1022 hPa)
ob: KCKB 022253Z 00000KT 10SM FEW100 OVC120 15/M12 A3018 RMK AO2 SLP221 T01501117
cycle: 23

Station Type Date Time Source
KCKB TAF 2022/12/02 18:09 UTC NOAA

TAF KCKB 021806Z 0218/0318 21003KT P6SM BKN100
FM022300 15004KT P6SM BKN210
FM030700 20007KT P6SM OVC080 WS020/21040KT
FM031300 22012KT 6SM -SHRA BR OVC018 WS020/23045KT
FM031500 25013G25KT P6SM -SHRA BKN013

Example: see airport list